Time;durP1;ratioP1;P1;durP2;ratioP2;P2;SDS_P1;SDS_P2;PMS_P1;PMS_P2;Temp;Humidity;BMP_temperature;BMP_pressure;BME280_temperature;BME280_humidity;BME280_pressure;Samples;Min_cycle;Max_cycle;Signal;HPM_P1;HPM_P2
2022/04/05 00:02:21;;;;;;;3.47;1.90;;;22.80;99.90;;;;;;5064332;28;20212;-68
2022/04/05 00:04:52;;;;;;;4.35;2.20;;;22.80;99.90;;;;;;5075588;28;20189;-69
2022/04/05 00:07:23;;;;;;;4.43;2.20;;;22.90;99.90;;;;;;5074809;28;20188;-68
2022/04/05 00:09:54;;;;;;;4.22;2.17;;;22.90;99.90;;;;;;5076449;28;20200;-68
2022/04/05 00:12:25;;;;;;;4.55;2.10;;;23.00;99.90;;;;;;5075014;28;20184;-68
2022/04/05 00:14:55;;;;;;;3.72;1.92;;;23.10;99.90;;;;;;5073349;28;20255;-68
2022/04/05 00:17:28;;;;;;;3.80;1.90;;;23.10;99.90;;;;;;5069661;28;20242;-68
2022/04/05 00:19:58;;;;;;;2.88;2.40;;;23.20;99.90;;;;;;5068889;28;20541;-70
2022/04/05 00:22:29;;;;;;;4.85;2.15;;;23.20;99.90;;;;;;5074053;28;20251;-68
2022/04/05 00:25:00;;;;;;;4.00;2.30;;;23.30;99.90;;;;;;5070674;28;20217;-68
2022/04/05 00:27:30;;;;;;;3.00;2.10;;;23.40;99.90;;;;;;5073373;28;20204;-68
2022/04/05 00:30:01;;;;;;;3.30;2.30;;;23.40;99.90;;;;;;5072853;28;20557;-68
2022/04/05 00:32:34;;;;;;;2.95;2.30;;;23.50;99.90;;;;;;5071575;28;20185;-68
2022/04/05 00:35:04;;;;;;;4.05;2.25;;;23.50;99.90;;;;;;5069564;28;20198;-69
2022/04/05 00:37:35;;;;;;;2.22;1.90;;;23.60;99.90;;;;;;5070736;28;20189;-68
2022/04/05 00:40:06;;;;;;;4.10;2.13;;;23.70;99.90;;;;;;5069493;28;20189;-68
2022/04/05 00:42:38;;;;;;;7.32;2.40;;;23.80;99.90;;;;;;5071268;28;20185;-70
2022/04/05 00:45:10;;;;;;;6.90;2.90;;;24.00;99.90;;;;;;5070952;28;20194;-69
2022/04/05 00:47:42;;;;;;;5.13;2.63;;;24.00;99.90;;;;;;5068202;28;20219;-69
2022/04/05 00:50:13;;;;;;;3.15;2.25;;;24.20;99.90;;;;;;5076460;28;20715;-69
2022/04/05 00:52:44;;;;;;;3.40;1.80;;;24.30;99.90;;;;;;5072999;28;20235;-69
2022/04/05 00:55:15;;;;;;;5.10;2.55;;;24.40;99.90;;;;;;5072236;28;20908;-70
2022/04/05 00:57:47;;;;;;;6.88;2.35;;;24.40;99.90;;;;;;5074685;28;20189;-68
2022/04/05 01:00:18;;;;;;;3.70;2.13;;;24.30;99.90;;;;;;5069824;28;20597;-69
2022/04/05 01:02:53;;;;;;;191.18;116.32;;;24.40;99.90;;;;;;5070896;28;20193;-69
2022/04/05 01:05:25;;;;;;;27.92;17.30;;;24.40;99.90;;;;;;5072280;28;20656;-69
2022/04/05 01:07:59;;;;;;;14.07;8.88;;;24.60;99.90;;;;;;5078277;28;20273;-68
2022/04/05 01:10:31;;;;;;;10.35;6.97;;;24.70;99.90;;;;;;5068861;28;20603;-68
2022/04/05 01:13:02;;;;;;;4.50;1.83;;;24.70;99.90;;;;;;5083709;28;20189;-68
2022/04/05 01:15:33;;;;;;;4.57;2.10;;;24.60;99.90;;;;;;5071034;28;20212;-69
2022/04/05 01:18:05;;;;;;;6.05;2.42;;;24.70;99.90;;;;;;5076811;28;20200;-69
2022/04/05 01:20:36;;;;;;;3.42;1.70;;;24.90;99.90;;;;;;5078415;28;20608;-68
2022/04/05 01:23:06;;;;;;;4.55;1.88;;;25.00;99.90;;;;;;5079917;28;20192;-69
2022/04/05 01:25:39;;;;;;;4.45;1.80;;;25.00;99.90;;;;;;5065716;28;20206;-70
2022/04/05 01:28:10;;;;;;;3.78;1.80;;;25.20;99.90;;;;;;5073389;28;20683;-70
2022/04/05 01:30:41;;;;;;;5.22;1.73;;;25.30;99.90;;;;;;5072291;28;20197;-71
2022/04/05 01:33:12;;;;;;;2.97;1.92;;;25.40;99.90;;;;;;5074583;28;20215;-69
2022/04/05 01:35:42;;;;;;;2.55;1.65;;;25.40;99.90;;;;;;5074535;28;20197;-69
2022/04/05 01:38:13;;;;;;;2.88;1.50;;;25.40;99.90;;;;;;5072471;28;20205;-69
2022/04/05 01:40:46;;;;;;;2.75;1.70;;;25.40;99.90;;;;;;5068579;28;20243;-69
2022/04/05 01:43:16;;;;;;;3.28;1.70;;;25.50;99.90;;;;;;5073607;28;20644;-68
2022/04/05 01:45:48;;;;;;;2.42;1.42;;;25.50;99.90;;;;;;5074723;28;20235;-69
2022/04/05 01:48:18;;;;;;;2.80;1.73;;;25.50;99.90;;;;;;5073881;28;20219;-69
2022/04/05 01:50:49;;;;;;;5.88;1.80;;;25.60;99.90;;;;;;5074936;28;20237;-69
2022/04/05 01:53:19;;;;;;;2.90;1.60;;;25.70;99.90;;;;;;5075240;28;20205;-69
2022/04/05 01:55:52;;;;;;;4.13;1.67;;;25.80;99.90;;;;;;5073931;28;20192;-75
2022/04/05 01:58:22;;;;;;;3.58;1.75;;;25.50;99.90;;;;;;5063785;28;20201;-70
2022/04/05 02:00:53;;;;;;;2.97;1.70;;;25.20;99.90;;;;;;5072569;28;20717;-71
2022/04/05 02:03:24;;;;;;;3.75;1.70;;;25.10;99.90;;;;;;5069851;28;20702;-69
2022/04/05 02:05:55;;;;;;;3.67;1.70;;;25.20;99.90;;;;;;5094167;28;20193;-70
2022/04/05 02:08:26;;;;;;;6.00;1.63;;;25.30;99.90;;;;;;5087939;28;20218;-69
2022/04/05 02:10:58;;;;;;;4.40;1.70;;;25.30;99.90;;;;;;5075485;28;20653;-70
2022/04/05 02:13:29;;;;;;;4.07;1.50;;;25.40;99.90;;;;;;5075843;28;20247;-73
2022/04/05 02:16:02;;;;;;;3.22;1.60;;;25.40;99.90;;;;;;5068625;28;20254;-70
2022/04/05 02:18:33;;;;;;;3.50;1.48;;;25.40;99.90;;;;;;5078546;28;20189;-69
2022/04/05 02:21:05;;;;;;;2.78;1.23;;;25.40;99.90;;;;;;5074955;28;20607;-72
2022/04/05 02:23:35;;;;;;;4.25;1.60;;;25.30;99.90;;;;;;5076390;28;20193;-70
2022/04/05 02:26:08;;;;;;;2.90;1.40;;;25.30;99.90;;;;;;5069317;28;20710;-72
2022/04/05 02:28:39;;;;;;;4.75;1.50;;;25.30;99.90;;;;;;5069910;28;20217;-71
2022/04/05 02:31:09;;;;;;;4.18;1.45;;;25.30;99.90;;;;;;5070869;28;20240;-71
2022/04/05 02:33:41;;;;;;;6.00;1.42;;;25.20;99.90;;;;;;5069067;28;20192;-72
2022/04/05 02:36:11;;;;;;;3.65;1.50;;;25.10;99.90;;;;;;5077161;28;20208;-70
2022/04/05 02:38:42;;;;;;;3.13;1.50;;;25.10;99.90;;;;;;5083125;28;20201;-71
2022/04/05 02:41:15;;;;;;;6.25;1.38;;;25.10;99.90;;;;;;5068541;28;20601;-71
2022/04/05 02:43:46;;;;;;;4.85;1.40;;;25.00;99.90;;;;;;5073616;28;20258;-72
2022/04/05 02:46:17;;;;;;;3.83;1.40;;;25.00;99.90;;;;;;5073481;28;20640;-70
2022/04/05 02:48:48;;;;;;;8.35;1.33;;;25.00;99.90;;;;;;5074857;28;20209;-74
2022/04/05 02:51:19;;;;;;;4.57;1.20;;;25.00;99.90;;;;;;5074469;28;20691;-70
2022/04/05 02:53:50;;;;;;;7.38;1.70;;;24.80;99.90;;;;;;5080532;28;20200;-73
2022/04/05 02:56:23;;;;;;;4.60;1.27;;;24.90;99.90;;;;;;5070161;28;20254;-70
2022/04/05 02:58:54;;;;;;;4.95;1.58;;;24.90;99.90;;;;;;5073686;28;20197;-71
2022/04/05 03:01:25;;;;;;;4.82;1.30;;;24.80;99.90;;;;;;5073801;28;20276;-70
2022/04/05 03:03:55;;;;;;;8.90;1.77;;;24.80;99.90;;;;;;5074069;28;20272;-72
2022/04/05 03:06:26;;;;;;;3.90;1.60;;;24.70;99.90;;;;;;5074414;28;20640;-70
2022/04/05 03:08:58;;;;;;;8.82;2.10;;;24.80;99.90;;;;;;5074057;28;20295;-70
2022/04/05 03:11:30;;;;;;;7.43;1.65;;;24.80;99.90;;;;;;5071292;28;20224;-69
2022/04/05 03:14:01;;;;;;;5.00;1.65;;;24.70;99.90;;;;;;5078276;28;20259;-72
2022/04/05 03:16:37;;;;;;;5.38;1.40;;;24.60;99.90;;;;;;5073821;28;20192;-69
2022/04/05 03:19:08;;;;;;;2.80;1.20;;;24.50;99.90;;;;;;5076128;28;20299;-69
2022/04/05 03:21:39;;;;;;;3.50;1.30;;;24.50;99.90;;;;;;5072890;28;20276;-70
2022/04/05 03:24:10;;;;;;;6.15;1.40;;;24.40;99.90;;;;;;5073027;28;20192;-70
2022/04/05 03:26:43;;;;;;;5.57;1.40;;;24.40;99.90;;;;;;5072983;28;20196;-70
2022/04/05 03:29:13;;;;;;;4.57;1.20;;;24.40;99.90;;;;;;5072357;28;20266;-69
2022/04/05 03:31:44;;;;;;;4.07;1.52;;;24.50;99.90;;;;;;5075538;28;20193;-70
2022/04/05 03:34:15;;;;;;;4.47;1.30;;;24.60;99.90;;;;;;5073427;28;20189;-69
2022/04/05 03:36:45;;;;;;;5.45;1.30;;;24.50;99.90;;;;;;5071198;28;20197;-69
2022/04/05 03:39:16;;;;;;;3.55;1.20;;;24.50;99.90;;;;;;5070677;28;20197;-70
2022/04/05 03:41:49;;;;;;;6.05;1.20;;;24.60;99.90;;;;;;5072199;28;20254;-70
2022/04/05 03:44:20;;;;;;;8.80;1.50;;;24.60;99.90;;;;;;5079585;28;20185;-68
2022/04/05 03:46:50;;;;;;;3.88;1.30;;;24.50;99.90;;;;;;5080745;28;20230;-69
2022/04/05 03:49:21;;;;;;;5.22;1.30;;;24.40;99.90;;;;;;5079840;28;20236;-69
2022/04/05 03:51:52;;;;;;;3.20;1.33;;;24.30;99.90;;;;;;5073589;28;20204;-70
2022/04/05 03:54:22;;;;;;;6.03;2.45;;;24.30;99.90;;;;;;5076535;28;20289;-72
2022/04/05 03:56:55;;;;;;;6.18;1.27;;;24.20;99.90;;;;;;5074449;28;20193;-70
2022/04/05 03:59:25;;;;;;;5.45;1.92;;;24.20;99.90;;;;;;5074898;28;20196;-72
2022/04/05 04:01:56;;;;;;;8.52;1.90;;;24.20;99.90;;;;;;5073339;28;20189;-70
2022/04/05 04:04:27;;;;;;;4.65;1.30;;;24.10;99.90;;;;;;5072842;28;20197;-71
2022/04/05 04:06:57;;;;;;;6.65;1.40;;;24.10;99.90;;;;;;5071480;28;20271;-71
2022/04/05 04:09:28;;;;;;;7.00;1.55;;;24.00;99.90;;;;;;5076553;28;20277;-70
2022/04/05 04:12:00;;;;;;;7.28;1.60;;;24.00;99.90;;;;;;5072904;28;20257;-71
2022/04/05 04:14:31;;;;;;;7.30;1.40;;;24.00;99.90;;;;;;5071378;28;20675;-69
2022/04/05 04:17:02;;;;;;;8.15;1.80;;;24.10;99.90;;;;;;5069436;28;20204;-70
2022/04/05 04:19:34;;;;;;;8.07;1.90;;;24.10;99.90;;;;;;5073514;28;21942;-69
2022/04/05 04:22:04;;;;;;;7.50;1.75;;;24.10;99.90;;;;;;5077072;28;20200;-69
2022/04/05 04:24:35;;;;;;;5.95;1.30;;;24.10;99.90;;;;;;5077676;28;20634;-69
2022/04/05 04:27:11;;;;;;;5.88;1.42;;;24.00;99.90;;;;;;5068512;28;20246;-69
2022/04/05 04:29:42;;;;;;;6.72;1.30;;;24.00;99.90;;;;;;5075184;28;20310;-69
2022/04/05 04:32:12;;;;;;;6.43;1.77;;;24.00;99.90;;;;;;5076348;28;20749;-70
2022/04/05 04:34:43;;;;;;;5.70;1.90;;;23.90;99.90;;;;;;5073906;28;20189;-70
2022/04/05 04:37:14;;;;;;;15.02;4.70;;;23.90;99.90;;;;;;5074207;28;20225;-71
2022/04/05 04:39:45;;;;;;;5.28;1.52;;;23.90;99.90;;;;;;5071691;28;20181;-69
2022/04/05 04:42:17;;;;;;;6.45;1.60;;;23.90;99.90;;;;;;5071856;28;20185;-70
2022/04/05 04:44:48;;;;;;;5.97;1.50;;;23.90;99.90;;;;;;5064527;28;20188;-74
2022/04/05 04:47:19;;;;;;;6.45;1.52;;;23.80;99.90;;;;;;5072159;28;20193;-69
2022/04/05 04:49:49;;;;;;;6.35;1.52;;;23.80;99.90;;;;;;5072192;28;20236;-69
2022/04/05 04:52:20;;;;;;;6.53;1.90;;;23.80;99.90;;;;;;5077582;28;20196;-72
2022/04/05 04:54:51;;;;;;;6.00;1.70;;;23.80;99.90;;;;;;5071114;28;20185;-70
2022/04/05 04:57:25;;;;;;;7.55;1.70;;;23.80;99.90;;;;;;5064184;28;20709;-70
2022/04/05 04:59:56;;;;;;;8.88;2.08;;;23.90;99.90;;;;;;5068274;28;20196;-73
2022/04/05 05:02:27;;;;;;;6.10;1.45;;;23.80;99.90;;;;;;5070112;28;20640;-69
2022/04/05 05:04:57;;;;;;;7.78;1.60;;;23.70;99.90;;;;;;5070616;28;20224;-71
2022/04/05 05:07:29;;;;;;;6.55;1.45;;;23.70;99.90;;;;;;5075446;28;20189;-70
2022/04/05 05:09:59;;;;;;;7.97;1.85;;;23.70;99.90;;;;;;5072116;28;20296;-69
2022/04/05 05:12:32;;;;;;;3.65;1.50;;;23.70;99.90;;;;;;5083646;28;20195;-70
2022/04/05 05:15:03;;;;;;;5.65;1.95;;;23.80;99.90;;;;;;5064505;28;20643;-71
2022/04/05 05:17:34;;;;;;;5.30;1.60;;;23.80;99.90;;;;;;5072396;28;20244;-70
2022/04/05 05:20:04;;;;;;;6.88;1.60;;;23.70;99.90;;;;;;5072655;28;20193;-71
2022/04/05 05:22:35;;;;;;;6.93;1.52;;;23.70;99.90;;;;;;5074453;28;20193;-71
2022/04/05 05:25:06;;;;;;;10.48;1.90;;;23.70;99.90;;;;;;5064395;28;20228;-70
2022/04/05 05:27:41;;;;;;;12.40;1.52;;;23.70;99.90;;;;;;5071898;28;20189;-72
2022/04/05 05:30:13;;;;;;;6.00;1.60;;;23.70;99.90;;;;;;5069489;28;20278;-79
2022/04/05 05:32:49;;;;;;;6.32;1.73;;;23.70;99.90;;;;;;5069543;28;20220;-84
2022/04/05 05:35:21;;;;;;;10.38;2.00;;;23.60;99.90;;;;;;5074815;28;20195;-79
2022/04/05 05:37:52;;;;;;;8.43;1.92;;;23.60;99.90;;;;;;5071815;28;20196;-81
2022/04/05 05:40:23;;;;;;;5.80;1.70;;;23.60;99.90;;;;;;5068335;28;20250;-70
2022/04/05 05:42:57;;;;;;;7.68;1.90;;;23.60;99.90;;;;;;5073253;28;20197;-73
2022/04/05 05:45:29;;;;;;;6.60;1.58;;;23.60;99.90;;;;;;5067970;28;20180;-70
2022/04/05 05:48:00;;;;;;;4.57;1.55;;;23.70;99.90;;;;;;5071823;28;20185;-69
2022/04/05 05:50:31;;;;;;;3.70;1.42;;;23.70;99.90;;;;;;5076138;28;20294;-70
2022/04/05 05:53:02;;;;;;;4.72;1.35;;;23.60;99.90;;;;;;5069835;28;20263;-70
2022/04/05 05:55:33;;;;;;;10.23;1.65;;;23.60;99.90;;;;;;5075142;28;20189;-73
2022/04/05 05:58:06;;;;;;;6.32;1.30;;;23.60;99.90;;;;;;5077855;28;20185;-70
2022/04/05 06:00:37;;;;;;;5.93;1.50;;;23.50;99.90;;;;;;5079735;28;20185;-74
2022/04/05 06:03:07;;;;;;;5.00;1.58;;;23.50;99.90;;;;;;5075178;28;20524;-69
2022/04/05 06:05:38;;;;;;;3.67;1.25;;;23.50;99.90;;;;;;5074544;28;20182;-70
2022/04/05 06:08:09;;;;;;;8.50;1.60;;;23.50;99.90;;;;;;5074694;28;20197;-69
2022/04/05 06:10:40;;;;;;;4.85;1.40;;;23.50;99.90;;;;;;5075087;28;20270;-69
2022/04/05 06:13:13;;;;;;;7.78;1.52;;;23.50;99.90;;;;;;5075041;28;20640;-69
2022/04/05 06:15:43;;;;;;;9.88;1.48;;;23.50;99.90;;;;;;5075147;28;20231;-69
2022/04/05 06:18:14;;;;;;;6.43;1.45;;;23.30;99.90;;;;;;5075194;28;20197;-69
2022/04/05 06:20:45;;;;;;;4.85;1.45;;;23.30;99.90;;;;;;5075351;28;20607;-69
2022/04/05 06:23:15;;;;;;;5.70;1.20;;;23.20;99.90;;;;;;5075051;28;20193;-70
2022/04/05 06:25:46;;;;;;;6.03;1.40;;;23.10;99.90;;;;;;5070641;28;20216;-70
2022/04/05 06:28:18;;;;;;;4.22;1.33;;;23.00;99.90;;;;;;5069296;28;20205;-72
2022/04/05 06:30:49;;;;;;;6.25;1.40;;;23.00;99.90;;;;;;5068578;28;20213;-71
2022/04/05 06:33:21;;;;;;;5.57;1.30;;;23.00;99.90;;;;;;5074109;28;20264;-71
2022/04/05 06:35:53;;;;;;;4.65;1.20;;;23.10;99.90;;;;;;5070894;28;20636;-72
2022/04/05 06:38:24;;;;;;;5.90;1.40;;;23.00;99.90;;;;;;5068235;28;20623;-70
2022/04/05 06:40:56;;;;;;;6.45;1.80;;;23.10;99.90;;;;;;5074414;28;20189;-71
2022/04/05 06:43:29;;;;;;;6.00;1.67;;;23.00;99.90;;;;;;5074753;28;20193;-72
2022/04/05 06:46:00;;;;;;;8.13;1.98;;;22.90;99.90;;;;;;5074864;28;20217;-70
2022/04/05 06:48:30;;;;;;;8.32;1.90;;;22.90;99.90;;;;;;5074575;28;20192;-70
2022/04/05 06:51:01;;;;;;;6.72;1.63;;;22.90;99.90;;;;;;5073828;28;20231;-72
2022/04/05 06:53:32;;;;;;;6.72;1.92;;;22.90;99.90;;;;;;5074637;28;20189;-70
2022/04/05 06:56:03;;;;;;;5.65;1.38;;;22.80;99.90;;;;;;5074554;28;20185;-71
2022/04/05 06:58:36;;;;;;;8.55;1.58;;;22.80;99.90;;;;;;5074320;28;20232;-71
2022/04/05 07:01:06;;;;;;;7.00;1.52;;;22.80;99.90;;;;;;5071986;28;20197;-70
2022/04/05 07:03:37;;;;;;;6.55;1.60;;;22.70;99.90;;;;;;5078538;28;20189;-70
2022/04/05 07:06:08;;;;;;;7.90;1.73;;;22.70;99.90;;;;;;5078070;28;20184;-70
2022/04/05 07:08:38;;;;;;;7.28;1.63;;;22.60;99.90;;;;;;5069483;28;20225;-77
2022/04/05 07:11:09;;;;;;;5.88;1.48;;;22.60;99.90;;;;;;5072743;28;20212;-70
2022/04/05 07:13:41;;;;;;;6.47;1.52;;;22.60;99.90;;;;;;5077208;28;20219;-71
2022/04/05 07:16:12;;;;;;;5.10;1.83;;;22.50;99.90;;;;;;5080596;28;20785;-70
2022/04/05 07:18:43;;;;;;;10.63;2.17;;;22.50;99.90;;;;;;5071111;28;20640;-75
2022/04/05 07:21:13;;;;;;;8.63;2.22;;;22.40;99.90;;;;;;5073264;28;20266;-70
2022/04/05 07:23:44;;;;;;;9.13;1.73;;;22.40;99.90;;;;;;5076357;28;20189;-76
2022/04/05 07:26:15;;;;;;;7.22;1.98;;;22.30;99.90;;;;;;5076892;28;20220;-71
2022/04/05 07:28:48;;;;;;;6.85;1.63;;;22.20;99.90;;;;;;5068947;28;20185;-74
2022/04/05 07:31:18;;;;;;;6.65;1.95;;;22.20;99.90;;;;;;5069086;28;20221;-70
2022/04/05 07:33:49;;;;;;;8.27;1.65;;;22.20;99.90;;;;;;5070797;28;20185;-70
2022/04/05 07:36:20;;;;;;;4.35;1.17;;;22.20;99.90;;;;;;5070492;28;20192;-69
2022/04/05 07:38:51;;;;;;;4.50;1.33;;;22.20;99.90;;;;;;5068982;28;20184;-70
2022/04/05 07:41:22;;;;;;;8.52;1.65;;;22.10;99.90;;;;;;5069989;28;20193;-70
2022/04/05 07:43:56;;;;;;;7.05;1.70;;;22.10;99.90;;;;;;5070702;28;20193;-70
2022/04/05 07:46:26;;;;;;;9.23;1.85;;;22.00;99.90;;;;;;5069485;28;20196;-70
2022/04/05 07:48:57;;;;;;;5.93;1.50;;;21.90;99.90;;;;;;5070724;28;20216;-72
2022/04/05 07:51:28;;;;;;;5.45;1.60;;;21.90;99.90;;;;;;5073226;28;20581;-71
2022/04/05 07:53:58;;;;;;;6.00;1.52;;;21.80;99.90;;;;;;5073118;28;20719;-71
2022/04/05 07:56:29;;;;;;;4.82;1.50;;;21.80;99.90;;;;;;5069502;28;20181;-71
2022/04/05 07:59:02;;;;;;;6.45;1.23;;;21.80;99.90;;;;;;5076800;28;20190;-70
2022/04/05 08:01:33;;;;;;;4.93;1.58;;;21.70;99.90;;;;;;5075961;28;20201;-70
2022/04/05 08:04:03;;;;;;;4.80;1.20;;;21.70;99.90;;;;;;5068359;28;20197;-70
2022/04/05 08:06:34;;;;;;;5.30;1.63;;;21.70;99.90;;;;;;5070068;28;20196;-72
2022/04/05 08:09:05;;;;;;;5.18;1.50;;;21.70;99.90;;;;;;5075250;28;20197;-70
2022/04/05 08:11:36;;;;;;;5.50;1.42;;;21.60;99.90;;;;;;5074273;28;20624;-70
2022/04/05 08:14:08;;;;;;;5.53;1.55;;;21.60;99.90;;;;;;5065881;28;20713;-70
2022/04/05 08:16:39;;;;;;;5.50;1.30;;;21.60;99.90;;;;;;5067702;28;20192;-71
2022/04/05 08:19:11;;;;;;;7.22;1.60;;;21.50;99.90;;;;;;5068206;28;20272;-70
2022/04/05 08:21:42;;;;;;;3.22;1.13;;;21.50;99.90;;;;;;5075290;28;20224;-70
2022/04/05 08:24:13;;;;;;;2.65;1.25;;;21.50;99.90;;;;;;5070104;28;20591;-71
2022/04/05 08:26:46;;;;;;;5.07;1.35;;;21.40;99.90;;;;;;5073734;28;20279;-70
2022/04/05 08:29:19;;;;;;;4.97;1.60;;;21.40;99.90;;;;;;5079299;28;20189;-70
2022/04/05 08:31:49;;;;;;;4.78;1.45;;;21.40;99.90;;;;;;5067142;28;20209;-71
2022/04/05 08:34:20;;;;;;;6.22;1.50;;;21.40;99.90;;;;;;5071347;28;20181;-70
2022/04/05 08:36:52;;;;;;;4.93;1.65;;;21.40;99.90;;;;;;5077679;28;20220;-70
2022/04/05 08:39:22;;;;;;;6.85;1.52;;;21.40;99.90;;;;;;5076350;28;20617;-69
2022/04/05 08:41:54;;;;;;;4.93;1.30;;;21.40;99.90;;;;;;5075516;28;20188;-70
2022/04/05 08:44:27;;;;;;;4.78;2.47;;;21.40;99.90;;;;;;5072365;28;20600;-69
2022/04/05 08:46:58;;;;;;;7.93;3.13;;;21.40;99.90;;;;;;5075371;28;20189;-70
2022/04/05 08:49:30;;;;;;;5.80;2.78;;;21.30;99.90;;;;;;5071517;28;20231;-70
2022/04/05 08:52:00;;;;;;;9.13;3.45;;;21.30;99.90;;;;;;5077901;28;20225;-70
2022/04/05 08:54:31;;;;;;;5.53;2.00;;;21.30;99.90;;;;;;5070889;28;20186;-69
2022/04/05 08:57:01;;;;;;;4.45;1.90;;;21.30;99.90;;;;;;5068896;28;20200;-70
2022/04/05 08:59:35;;;;;;;5.50;2.08;;;21.30;99.90;;;;;;5072409;28;20192;-69
2022/04/05 09:02:06;;;;;;;5.65;2.10;;;21.20;99.90;;;;;;5076012;28;20193;-69
2022/04/05 09:04:37;;;;;;;5.88;1.90;;;21.20;99.90;;;;;;5071725;28;20197;-70
2022/04/05 09:07:23;;;;;;;6.03;1.50;;;21.20;99.90;;;;;;5068833;28;20189;-70
2022/04/05 09:10:12;;;;;;;3.10;1.60;;;21.20;99.90;;;;;;5070651;28;20681;-70
2022/04/05 09:12:47;;;;;;;5.15;1.83;;;21.20;99.90;;;;;;5070924;28;20558;-69
2022/04/05 09:15:29;;;;;;;6.68;1.60;;;21.20;99.90;;;;;;5063830;28;20189;-70
2022/04/05 09:18:00;;;;;;;4.90;1.52;;;21.20;99.90;;;;;;5075128;28;20192;-70
2022/04/05 09:20:30;;;;;;;3.38;1.30;;;21.10;99.90;;;;;;5067811;28;20193;-69
2022/04/05 09:23:02;;;;;;;8.57;3.00;;;21.10;99.90;;;;;;5070669;28;20185;-70
2022/04/05 09:25:35;;;;;;;75.30;43.03;;;21.10;99.90;;;;;;5067928;28;20244;-69
2022/04/05 09:28:06;;;;;;;20.02;11.15;;;21.10;99.90;;;;;;5064135;28;20193;-72
2022/04/05 09:30:41;;;;;;;5.07;2.20;;;21.10;99.90;;;;;;5072034;28;20217;-69
2022/04/05 09:33:15;;;;;;;4.25;1.55;;;21.10;99.90;;;;;;5075335;28;20184;-68
2022/04/05 09:35:46;;;;;;;4.72;1.42;;;21.00;99.90;;;;;;5073064;28;20184;-69
2022/04/05 09:38:18;;;;;;;7.55;2.05;;;21.00;99.90;;;;;;5065673;28;20189;-71
2022/04/05 09:40:52;;;;;;;3.60;1.40;;;20.90;99.90;;;;;;5072265;28;20185;-70
2022/04/05 09:43:23;;;;;;;3.75;1.80;;;21.00;99.90;;;;;;5066595;28;20277;-69
2022/04/05 09:45:58;;;;;;;4.47;1.70;;;20.90;99.90;;;;;;5070936;28;20272;-72
2022/04/05 09:48:30;;;;;;;3.45;1.75;;;20.90;99.90;;;;;;5078999;28;20188;-69
2022/04/05 09:51:02;;;;;;;5.18;1.52;;;20.90;99.90;;;;;;5074837;28;20237;-69
2022/04/05 09:53:43;;;;;;;6.10;1.80;;;20.80;99.90;;;;;;5075781;28;20558;-70
2022/04/05 09:56:16;;;;;;;5.53;2.28;;;20.80;99.90;;;;;;5075037;28;20189;-69
2022/04/05 09:58:54;;;;;;;5.15;2.05;;;20.80;99.90;;;;;;5070747;28;20193;-71
2022/04/05 10:01:27;;;;;;;5.25;1.73;;;20.80;99.90;;;;;;5072990;28;20203;-72
2022/04/05 10:04:03;;;;;;;4.28;1.73;;;20.70;99.90;;;;;;5075070;28;20671;-73
2022/04/05 10:06:38;;;;;;;5.72;1.65;;;20.80;99.90;;;;;;5070675;28;20184;-70
2022/04/05 10:09:09;;;;;;;3.75;1.50;;;20.80;99.90;;;;;;5075052;28;20275;-71
2022/04/05 10:11:41;;;;;;;4.53;1.90;;;20.80;99.90;;;;;;5068478;28;20296;-74
2022/04/05 10:14:13;;;;;;;5.25;1.52;;;20.80;99.90;;;;;;5071365;28;20185;-74
2022/04/05 10:16:50;;;;;;;6.35;1.80;;;20.80;99.90;;;;;;5068164;28;20251;-71
2022/04/05 10:19:22;;;;;;;6.75;1.77;;;20.80;99.90;;;;;;5072352;28;20189;-74
2022/04/05 10:21:54;;;;;;;7.32;1.90;;;20.80;99.90;;;;;;5070196;28;20276;-72
2022/04/05 10:24:24;;;;;;;5.10;1.67;;;20.80;99.90;;;;;;5071180;28;20239;-70
2022/04/05 10:26:57;;;;;;;5.50;1.80;;;20.80;99.90;;;;;;5067031;28;20251;-69
2022/04/05 10:29:29;;;;;;;4.95;2.00;;;20.80;99.90;;;;;;5071855;28;20201;-70
2022/04/05 10:32:09;;;;;;;6.00;1.90;;;20.80;99.90;;;;;;5069715;28;20217;-76
2022/04/05 10:34:45;;;;;;;5.80;2.33;;;20.80;99.90;;;;;;5070537;28;20195;-80
2022/04/05 10:37:19;;;;;;;4.40;1.80;;;20.70;99.90;;;;;;5073803;28;20234;-70
2022/04/05 10:40:17;;;;;;;6.18;2.10;;;20.70;99.90;;;;;;5073668;28;20322;-71
2022/04/05 10:42:49;;;;;;;5.00;1.80;;;20.70;99.90;;;;;;5073174;28;20198;-76
2022/04/05 10:45:21;;;;;;;5.18;2.03;;;20.70;99.90;;;;;;5070175;28;20196;-76
2022/04/05 10:48:12;;;;;;;4.10;1.98;;;20.70;99.90;;;;;;5072162;28;20188;-72
2022/04/05 10:50:43;;;;;;;5.10;1.80;;;20.70;99.90;;;;;;5071435;28;20308;-73
2022/04/05 10:53:22;;;;;;;5.25;1.98;;;20.60;99.90;;;;;;5080314;28;20192;-70
2022/04/05 10:56:22;;;;;;;6.80;2.00;;;20.60;99.90;;;;;;5074183;28;20185;-73
2022/04/05 10:59:20;;;;;;;9.05;2.00;;;20.60;99.90;;;;;;4989059;28;20313;-71
2022/04/05 11:01:50;;;;;;;5.05;1.90;;;20.60;99.90;;;;;;5070622;28;20240;-73
2022/04/05 11:04:35;;;;;;;3.63;1.70;;;20.60;99.90;;;;;;5076161;28;20200;-71
2022/04/05 11:07:15;;;;;;;5.00;1.60;;;20.60;99.90;;;;;;5064010;28;20722;-73
2022/04/05 11:09:55;;;;;;;7.18;1.70;;;20.60;99.90;;;;;;5067999;28;20249;-72
2022/04/05 11:12:29;;;;;;;4.60;1.50;;;20.50;99.90;;;;;;5076339;28;20216;-71
2022/04/05 11:15:03;;;;;;;4.53;1.42;;;20.50;99.90;;;;;;5075731;28;20242;-75
2022/04/05 11:17:36;;;;;;;3.65;1.40;;;20.50;99.90;;;;;;5075876;28;20275;-72
2022/04/05 11:20:10;;;;;;;3.70;1.48;;;20.50;99.90;;;;;;5076341;28;20611;-70
2022/04/05 11:22:41;;;;;;;4.45;1.50;;;20.50;99.90;;;;;;5073535;28;20200;-70
2022/04/05 11:25:13;;;;;;;4.00;1.42;;;20.40;99.90;;;;;;5063580;28;20616;-71
2022/04/05 11:27:49;;;;;;;3.10;1.42;;;20.40;99.90;;;;;;5073446;28;20997;-79
2022/04/05 11:30:49;;;;;;;4.70;1.20;;;20.40;99.90;;;;;;5078370;28;20267;-72
2022/04/05 11:33:39;;;;;;;6.15;1.30;;;20.40;99.90;;;;;;5075090;28;20199;-73
2022/04/05 11:36:13;;;;;;;3.88;1.50;;;20.40;99.90;;;;;;5078028;28;20200;-70
2022/04/05 11:38:48;;;;;;;3.67;1.35;;;20.40;99.90;;;;;;5078925;28;20193;-71
2022/04/05 11:41:24;;;;;;;2.38;1.30;;;20.40;99.90;;;;;;5072387;28;20535;-70
2022/04/05 11:43:55;;;;;;;2.78;1.13;;;20.30;99.90;;;;;;5075170;28;20185;-70
2022/04/05 11:46:28;;;;;;;5.90;1.20;;;20.30;99.90;;;;;;5067029;28;20242;-71
2022/04/05 11:49:03;;;;;;;4.40;1.27;;;20.30;99.90;;;;;;5071344;28;20231;-71
2022/04/05 11:51:37;;;;;;;3.50;1.20;;;20.30;99.90;;;;;;5073594;28;20218;-69
2022/04/05 11:54:10;;;;;;;2.72;1.08;;;20.30;99.90;;;;;;5069980;28;20189;-74
2022/04/05 11:56:42;;;;;;;3.47;1.17;;;20.30;99.90;;;;;;5080529;28;20197;-71
2022/04/05 11:59:14;;;;;;;3.67;1.40;;;20.30;99.90;;;;;;5077537;28;20631;-71
2022/04/05 12:01:49;;;;;;;5.50;1.20;;;20.30;99.90;;;;;;5075579;28;20242;-70
2022/04/05 12:04:22;;;;;;;4.80;1.10;;;20.20;99.90;;;;;;5072963;28;20180;-71
2022/04/05 12:06:59;;;;;;;6.28;1.25;;;20.20;99.90;;;;;;5076368;28;20195;-72
2022/04/05 12:09:31;;;;;;;3.05;1.00;;;20.20;99.90;;;;;;5071979;28;20276;-69
2022/04/05 12:12:08;;;;;;;3.45;1.13;;;20.20;99.90;;;;;;5073636;28;20269;-69
2022/04/05 12:14:38;;;;;;;4.80;1.52;;;20.20;99.90;;;;;;5076118;28;20220;-72
2022/04/05 12:17:10;;;;;;;3.63;1.40;;;20.20;99.90;;;;;;5073725;28;20197;-71
2022/04/05 12:19:41;;;;;;;3.70;1.20;;;20.20;99.90;;;;;;5074177;28;20627;-69
2022/04/05 12:22:16;;;;;;;3.50;1.38;;;20.20;99.90;;;;;;5074896;28;20242;-72
2022/04/05 12:24:50;;;;;;;3.83;1.40;;;20.20;99.90;;;;;;5068305;28;20251;-71
2022/04/05 12:27:23;;;;;;;5.03;1.20;;;20.20;99.90;;;;;;5071914;28;20189;-73
2022/04/05 12:30:00;;;;;;;2.85;1.20;;;20.20;99.90;;;;;;5072247;28;20193;-71
2022/04/05 12:32:37;;;;;;;3.38;1.40;;;20.20;99.90;;;;;;5072513;28;20212;-70
2022/04/05 12:35:09;;;;;;;4.82;1.33;;;20.30;99.90;;;;;;5065683;28;20203;-71
2022/04/05 12:37:41;;;;;;;3.60;1.10;;;20.30;99.90;;;;;;5076614;28;20184;-70
2022/04/05 12:40:25;;;;;;;4.32;1.23;;;20.30;99.90;;;;;;5072753;28;20238;-69
2022/04/05 12:42:56;;;;;;;5.78;1.30;;;20.30;99.90;;;;;;5082438;28;20188;-70
2022/04/05 12:45:31;;;;;;;4.22;1.00;;;20.40;99.90;;;;;;5072487;28;20196;-72
2022/04/05 12:48:12;;;;;;;4.97;1.27;;;20.30;99.90;;;;;;5072914;28;20184;-70
2022/04/05 12:50:49;;;;;;;6.30;1.20;;;20.40;99.90;;;;;;5074161;28;20224;-70
2022/04/05 12:53:31;;;;;;;7.60;1.30;;;20.30;99.90;;;;;;5075176;28;20214;-70
2022/04/05 12:56:03;;;;;;;3.50;1.10;;;20.40;99.90;;;;;;5078027;28;20648;-71
2022/04/05 12:58:46;;;;;;;6.60;1.20;;;20.30;99.90;;;;;;5078222;28;20231;-70
2022/04/05 13:01:25;;;;;;;5.78;1.33;;;20.20;99.90;;;;;;5084056;28;20693;-69
2022/04/05 13:04:06;;;;;;;4.70;1.20;;;20.20;99.90;;;;;;5078948;28;20193;-72
2022/04/05 13:06:36;;;;;;;4.18;1.10;;;20.20;99.90;;;;;;5069651;28;20185;-70
2022/04/05 13:09:14;;;;;;;5.07;1.10;;;20.20;99.90;;;;;;5080727;28;20325;-70
2022/04/05 13:11:45;;;;;;;3.85;0.80;;;20.20;99.90;;;;;;5076709;28;20630;-70
2022/04/05 13:14:17;;;;;;;3.15;0.82;;;20.10;99.90;;;;;;5078359;28;20189;-70